CCA9691 ZUUU-ZGHA
Flight info
| Callsign | CCA9691 |
|---|---|
| Flight time | 1h 37m |
| Altitude | 29100 |
| Route | UBRAB9W UBRAB B213 KIGUM W240 ENH W139 DYG W194 LLC W138 RUKLI RUK1W |
| Aircraft | B77W/H-SDE1E2E3FGHIJ2J3J4J5M1RWXY/LB1D1 |
Departure
| Time | 2026-04-27 08:05 |
|---|---|
| Airport | Chengdu Shuangliu International Airport (ZUUU) |
Arrival
| Time | 2026-04-27 09:42 |
|---|---|
| Airport | Changsha Huanghua International Airport (ZGHA) |
| Time | Latitude | Longitude | Altitude | Speed | Heading |
|---|---|---|---|---|---|
| 2026-04-27 07:51 | 30.59418 | 103.95839 | 1652 ft | 0 kts | 112° |
| 2026-04-27 07:56 | 30.59419 | 103.95835 | 1652 ft | 3 kts | 112° |
| 2026-04-27 07:56 | 30.59430 | 103.95807 | 1652 ft | 4 kts | 120° |
| 2026-04-27 07:56 | 30.59445 | 103.95782 | 1652 ft | 4 kts | 135° |
| 2026-04-27 07:57 | 30.59463 | 103.95766 | 1652 ft | 4 kts | 165° |
| 2026-04-27 07:57 | 30.59479 | 103.95764 | 1652 ft | 1 kts | 200° |
| 2026-04-27 07:57 | 30.59479 | 103.95765 | 1652 ft | 0 kts | 200° |
| 2026-04-27 07:58 | 30.59473 | 103.95751 | 1652 ft | 5 kts | 253° |
| 2026-04-27 07:59 | 30.59475 | 103.95698 | 1652 ft | 7 kts | 247° |
| 2026-04-27 07:59 | 30.59373 | 103.95626 | 1652 ft | 9 kts | 202° |
| 2026-04-27 07:59 | 30.59326 | 103.95604 | 1652 ft | 0 kts | 202° |
| 2026-04-27 08:02 | 30.59318 | 103.95600 | 1652 ft | 7 kts | 206° |
| 2026-04-27 08:02 | 30.59300 | 103.95538 | 1652 ft | 6 kts | 281° |
| 2026-04-27 08:02 | 30.59304 | 103.95523 | 1652 ft | 1 kts | 289° |
| 2026-04-27 08:03 | 30.59307 | 103.95512 | 1651 ft | 2 kts | 289° |
| 2026-04-27 08:03 | 30.59325 | 103.95413 | 1652 ft | 10 kts | 256° |
| 2026-04-27 08:03 | 30.59277 | 103.95366 | 1652 ft | 5 kts | 204° |
| 2026-04-27 08:03 | 30.59274 | 103.95364 | 1652 ft | 0 kts | 204° |
| 2026-04-27 08:04 | 30.59263 | 103.95358 | 1652 ft | 12 kts | 204° |
| 2026-04-27 08:04 | 30.58913 | 103.95196 | 1668 ft | 96 kts | 201° |
| 2026-04-27 08:04 | 30.58052 | 103.94795 | 1654 ft | 167 kts | 202° |
| 2026-04-27 08:04 | 30.56876 | 103.94250 | 2073 ft | 186 kts | 202° |
| 2026-04-27 08:05 | 30.55728 | 103.93667 | 2871 ft | 188 kts | 204° |
| 2026-04-27 08:05 | 30.54490 | 103.93054 | 3547 ft | 200 kts | 202° |
| 2026-04-27 08:05 | 30.53114 | 103.92374 | 3860 ft | 230 kts | 202° |
| 2026-04-27 08:05 | 30.51535 | 103.91595 | 4079 ft | 264 kts | 202° |
| 2026-04-27 08:06 | 30.49778 | 103.90721 | 4656 ft | 280 kts | 204° |
| 2026-04-27 08:06 | 30.48175 | 103.89379 | 5226 ft | 294 kts | 234° |
| 2026-04-27 08:06 | 30.47403 | 103.87210 | 6142 ft | 294 kts | 266° |
| 2026-04-27 08:06 | 30.47570 | 103.84892 | 7047 ft | 288 kts | 293° |
| 2026-04-27 08:07 | 30.48559 | 103.82936 | 7975 ft | 279 kts | 319° |
| 2026-04-27 08:07 | 30.50151 | 103.81701 | 8809 ft | 276 kts | 345° |
| 2026-04-27 08:07 | 30.52038 | 103.81412 | 9593 ft | 276 kts | 9° |
| 2026-04-27 08:07 | 30.53875 | 103.82041 | 10325 ft | 277 kts | 29° |
| 2026-04-27 08:08 | 30.55538 | 103.83184 | 11054 ft | 282 kts | 32° |
| 2026-04-27 08:08 | 30.57246 | 103.84397 | 11809 ft | 295 kts | 32° |
| 2026-04-27 08:08 | 30.59035 | 103.85669 | 12590 ft | 309 kts | 32° |
| 2026-04-27 08:08 | 30.60909 | 103.87001 | 13384 ft | 323 kts | 32° |
| 2026-04-27 08:09 | 30.62868 | 103.88392 | 14137 ft | 337 kts | 32° |
| 2026-04-27 08:09 | 30.64910 | 103.89837 | 14851 ft | 351 kts | 31° |
| 2026-04-27 08:09 | 30.67067 | 103.91357 | 15261 ft | 376 kts | 31° |
| 2026-04-27 08:09 | 30.69383 | 103.92986 | 15606 ft | 399 kts | 31° |
| 2026-04-27 08:10 | 30.71760 | 103.94741 | 16099 ft | 408 kts | 37° |
| 2026-04-27 08:10 | 30.73652 | 103.97249 | 16600 ft | 422 kts | 60° |
| 2026-04-27 08:10 | 30.74770 | 104.00404 | 17315 ft | 425 kts | 70° |
| 2026-04-27 08:10 | 30.75779 | 104.03686 | 17885 ft | 437 kts | 69° |
| 2026-04-27 08:11 | 30.76848 | 104.07038 | 18523 ft | 447 kts | 69° |
| 2026-04-27 08:11 | 30.77945 | 104.10443 | 19209 ft | 452 kts | 69° |
| 2026-04-27 08:11 | 30.79056 | 104.13877 | 19984 ft | 456 kts | 69° |
| 2026-04-27 08:11 | 30.80176 | 104.17340 | 20741 ft | 460 kts | 69° |
| 2026-04-27 08:12 | 30.81311 | 104.20847 | 21446 ft | 466 kts | 69° |
| 2026-04-27 08:12 | 30.82458 | 104.24395 | 22155 ft | 471 kts | 69° |
| 2026-04-27 08:12 | 30.83617 | 104.27983 | 22812 ft | 477 kts | 70° |
| 2026-04-27 08:12 | 30.84788 | 104.31614 | 23456 ft | 482 kts | 70° |
| 2026-04-27 08:13 | 30.85972 | 104.35284 | 24006 ft | 487 kts | 70° |
| 2026-04-27 08:13 | 30.87162 | 104.38983 | 24566 ft | 490 kts | 70° |
| 2026-04-27 08:13 | 30.88271 | 104.42735 | 25154 ft | 493 kts | 72° |
| 2026-04-27 08:13 | 30.89276 | 104.46562 | 25704 ft | 496 kts | 74° |
| 2026-04-27 08:14 | 30.90243 | 104.50432 | 26253 ft | 500 kts | 74° |
| 2026-04-27 08:14 | 30.91214 | 104.54330 | 26777 ft | 504 kts | 74° |
| 2026-04-27 08:14 | 30.92207 | 104.58262 | 27285 ft | 508 kts | 73° |
| 2026-04-27 08:14 | 30.93220 | 104.62211 | 27796 ft | 511 kts | 73° |
| 2026-04-27 08:15 | 30.94250 | 104.66191 | 28286 ft | 515 kts | 73° |
| 2026-04-27 08:15 | 30.95276 | 104.70139 | 28733 ft | 518 kts | 73° |
| 2026-04-27 08:15 | 30.96337 | 104.74223 | 29165 ft | 522 kts | 73° |
| 2026-04-27 08:15 | 30.97374 | 104.78226 | 29567 ft | 525 kts | 73° |
| 2026-04-27 08:16 | 30.98432 | 104.82321 | 29965 ft | 528 kts | 73° |
| 2026-04-27 08:16 | 30.99490 | 104.86424 | 30383 ft | 529 kts | 73° |
| 2026-04-27 08:16 | 31.00547 | 104.90529 | 30843 ft | 529 kts | 73° |
| 2026-04-27 08:16 | 31.01354 | 104.94678 | 31066 ft | 528 kts | 85° |
| 2026-04-27 08:17 | 31.01180 | 104.98959 | 31279 ft | 532 kts | 102° |
| 2026-04-27 08:17 | 31.00037 | 105.03030 | 31730 ft | 525 kts | 117° |
| 2026-04-27 08:17 | 30.98416 | 105.06832 | 32038 ft | 526 kts | 118° |
| 2026-04-27 08:17 | 30.96803 | 105.10666 | 32386 ft | 528 kts | 117° |
| 2026-04-27 08:18 | 30.95226 | 105.14527 | 32857 ft | 527 kts | 117° |
| 2026-04-27 08:18 | 30.93688 | 105.18393 | 33348 ft | 526 kts | 115° |
| 2026-04-27 08:18 | 30.92335 | 105.22351 | 33807 ft | 526 kts | 111° |
| 2026-04-27 08:18 | 30.91113 | 105.26371 | 34175 ft | 527 kts | 110° |
| 2026-04-27 08:19 | 30.89916 | 105.30405 | 34522 ft | 528 kts | 110° |
| 2026-04-27 08:19 | 30.88720 | 105.34442 | 34880 ft | 528 kts | 110° |
| 2026-04-27 08:19 | 30.87514 | 105.38483 | 34990 ft | 528 kts | 111° |
| 2026-04-27 08:19 | 30.86299 | 105.42510 | 34989 ft | 528 kts | 111° |
| 2026-04-27 08:20 | 30.83840 | 105.50559 | 34990 ft | 528 kts | 111° |
| 2026-04-27 08:20 | 30.81363 | 105.58598 | 34982 ft | 527 kts | 111° |
| 2026-04-27 08:21 | 30.78879 | 105.66636 | 34986 ft | 527 kts | 111° |
| 2026-04-27 08:21 | 30.76413 | 105.74606 | 34978 ft | 527 kts | 111° |
| 2026-04-27 08:22 | 30.73930 | 105.82620 | 34978 ft | 527 kts | 111° |
| 2026-04-27 08:22 | 30.71440 | 105.90635 | 34975 ft | 527 kts | 111° |
| 2026-04-27 08:23 | 30.68946 | 105.98640 | 34978 ft | 527 kts | 111° |
| 2026-04-27 08:23 | 30.66445 | 106.06647 | 34972 ft | 527 kts | 111° |
| 2026-04-27 08:24 | 30.63943 | 106.14640 | 34975 ft | 527 kts | 111° |
| 2026-04-27 08:24 | 30.61436 | 106.22627 | 34974 ft | 527 kts | 111° |
| 2026-04-27 08:25 | 30.58924 | 106.30609 | 34970 ft | 526 kts | 111° |
| 2026-04-27 08:25 | 30.56410 | 106.38584 | 34969 ft | 526 kts | 111° |
| 2026-04-27 08:26 | 30.53904 | 106.46508 | 34972 ft | 526 kts | 111° |
| 2026-04-27 08:26 | 30.51380 | 106.54473 | 34971 ft | 526 kts | 111° |
| 2026-04-27 08:27 | 30.48851 | 106.62431 | 34967 ft | 526 kts | 111° |
| 2026-04-27 08:27 | 30.46319 | 106.70384 | 34979 ft | 526 kts | 111° |
| 2026-04-27 08:28 | 30.43800 | 106.78274 | 34987 ft | 525 kts | 111° |
| 2026-04-27 08:28 | 30.41260 | 106.86213 | 34971 ft | 525 kts | 111° |
| 2026-04-27 08:29 | 30.38717 | 106.94137 | 34967 ft | 524 kts | 111° |
| 2026-04-27 08:29 | 30.36173 | 107.02048 | 34975 ft | 524 kts | 111° |
| 2026-04-27 08:30 | 30.33624 | 107.09956 | 34975 ft | 524 kts | 111° |
| 2026-04-27 08:30 | 30.31070 | 107.17859 | 34990 ft | 524 kts | 111° |
| 2026-04-27 08:31 | 30.28945 | 107.24423 | 34962 ft | 523 kts | 111° |
| 2026-04-27 08:31 | 30.25956 | 107.33631 | 34972 ft | 523 kts | 111° |
| 2026-04-27 08:32 | 30.23828 | 107.40173 | 34972 ft | 523 kts | 111° |
| 2026-04-27 08:32 | 30.21264 | 107.48039 | 34971 ft | 523 kts | 112° |
| 2026-04-27 08:33 | 30.18695 | 107.55901 | 34970 ft | 523 kts | 112° |
| 2026-04-27 08:33 | 30.16121 | 107.63755 | 34970 ft | 525 kts | 112° |
| 2026-04-27 08:34 | 30.13499 | 107.71735 | 34988 ft | 537 kts | 112° |
| 2026-04-27 08:34 | 30.10826 | 107.79856 | 35007 ft | 544 kts | 112° |
| 2026-04-27 08:35 | 30.08125 | 107.88047 | 34965 ft | 546 kts | 112° |
| 2026-04-27 08:35 | 30.05418 | 107.96229 | 34963 ft | 545 kts | 112° |
| 2026-04-27 08:36 | 30.02716 | 108.04385 | 34969 ft | 544 kts | 112° |
| 2026-04-27 08:36 | 30.00008 | 108.12536 | 34979 ft | 544 kts | 112° |
| 2026-04-27 08:37 | 29.97291 | 108.20688 | 34983 ft | 544 kts | 112° |
| 2026-04-27 08:37 | 29.94573 | 108.28825 | 34984 ft | 544 kts | 112° |
| 2026-04-27 08:38 | 29.91865 | 108.36920 | 34974 ft | 544 kts | 112° |
| 2026-04-27 08:38 | 29.89159 | 108.44985 | 34972 ft | 543 kts | 112° |
| 2026-04-27 08:39 | 29.86430 | 108.53097 | 34984 ft | 543 kts | 112° |
| 2026-04-27 08:39 | 29.83696 | 108.61202 | 34980 ft | 542 kts | 112° |
| 2026-04-27 08:40 | 29.80943 | 108.69264 | 34998 ft | 542 kts | 112° |
| 2026-04-27 08:40 | 29.78228 | 108.77378 | 34981 ft | 543 kts | 112° |
| 2026-04-27 08:41 | 29.75489 | 108.85463 | 34972 ft | 542 kts | 112° |
| 2026-04-27 08:41 | 29.72737 | 108.93538 | 34976 ft | 541 kts | 112° |
| 2026-04-27 08:42 | 29.69984 | 109.01599 | 34970 ft | 541 kts | 112° |
| 2026-04-27 08:42 | 29.67229 | 109.09655 | 34985 ft | 541 kts | 112° |
| 2026-04-27 08:43 | 29.64468 | 109.17711 | 34988 ft | 541 kts | 112° |
| 2026-04-27 08:43 | 29.61708 | 109.25750 | 34981 ft | 541 kts | 112° |
| 2026-04-27 08:44 | 29.58947 | 109.33771 | 34982 ft | 540 kts | 112° |
| 2026-04-27 08:44 | 29.56179 | 109.41793 | 34985 ft | 539 kts | 112° |
| 2026-04-27 08:45 | 29.53416 | 109.49784 | 34984 ft | 538 kts | 112° |
| 2026-04-27 08:45 | 29.50652 | 109.57757 | 34977 ft | 537 kts | 112° |
| 2026-04-27 08:46 | 29.47889 | 109.65710 | 34982 ft | 536 kts | 112° |
| 2026-04-27 08:46 | 29.45187 | 109.73477 | 34982 ft | 520 kts | 113° |
| 2026-04-27 08:47 | 29.42517 | 109.81131 | 34980 ft | 514 kts | 113° |
| 2026-04-27 08:47 | 29.39858 | 109.88730 | 34986 ft | 513 kts | 113° |
| 2026-04-27 08:48 | 29.37199 | 109.96318 | 34990 ft | 513 kts | 113° |
| 2026-04-27 08:48 | 29.34531 | 110.03913 | 34981 ft | 514 kts | 113° |
| 2026-04-27 08:49 | 29.31855 | 110.11517 | 34974 ft | 514 kts | 113° |
| 2026-04-27 08:49 | 29.29174 | 110.19120 | 34989 ft | 515 kts | 113° |
| 2026-04-27 08:50 | 29.26486 | 110.26724 | 34988 ft | 515 kts | 113° |
| 2026-04-27 08:50 | 29.23795 | 110.34323 | 34990 ft | 516 kts | 114° |
| 2026-04-27 08:51 | 29.21090 | 110.41944 | 34980 ft | 516 kts | 114° |
| 2026-04-27 08:51 | 29.18385 | 110.49550 | 34994 ft | 516 kts | 114° |
| 2026-04-27 08:52 | 29.15669 | 110.57167 | 34986 ft | 517 kts | 114° |
| 2026-04-27 08:52 | 29.12971 | 110.64722 | 34991 ft | 517 kts | 114° |
| 2026-04-27 08:53 | 29.10246 | 110.72334 | 34988 ft | 517 kts | 114° |
| 2026-04-27 08:53 | 29.07518 | 110.79938 | 34995 ft | 517 kts | 114° |
| 2026-04-27 08:54 | 29.04786 | 110.87540 | 34988 ft | 517 kts | 114° |
| 2026-04-27 08:54 | 29.02054 | 110.95127 | 34993 ft | 517 kts | 114° |
| 2026-04-27 08:55 | 28.99312 | 111.02718 | 35003 ft | 517 kts | 114° |
| 2026-04-27 08:55 | 28.96570 | 111.10300 | 34999 ft | 516 kts | 114° |
| 2026-04-27 08:56 | 28.93827 | 111.17872 | 34989 ft | 516 kts | 114° |
| 2026-04-27 08:56 | 28.91200 | 111.25490 | 34980 ft | 517 kts | 109° |
| 2026-04-27 08:57 | 28.88062 | 111.37262 | 34975 ft | 517 kts | 108° |
| 2026-04-27 08:58 | 28.85982 | 111.45087 | 34857 ft | 510 kts | 108° |
| 2026-04-27 08:58 | 28.84946 | 111.48921 | 34505 ft | 502 kts | 108° |
| 2026-04-27 08:58 | 28.83910 | 111.52723 | 33819 ft | 505 kts | 108° |
| 2026-04-27 08:58 | 28.82860 | 111.56560 | 32896 ft | 511 kts | 109° |
| 2026-04-27 08:59 | 28.81791 | 111.60456 | 31786 ft | 517 kts | 108° |
| 2026-04-27 08:59 | 28.80711 | 111.64393 | 30618 ft | 524 kts | 108° |
| 2026-04-27 08:59 | 28.79632 | 111.68322 | 29520 ft | 528 kts | 108° |
| 2026-04-27 08:59 | 28.78536 | 111.72310 | 28695 ft | 524 kts | 108° |
| 2026-04-27 09:00 | 28.77455 | 111.76244 | 28090 ft | 516 kts | 108° |
| 2026-04-27 09:00 | 28.76391 | 111.80110 | 27542 ft | 507 kts | 108° |
| 2026-04-27 09:00 | 28.75343 | 111.83916 | 26971 ft | 500 kts | 108° |
| 2026-04-27 09:00 | 28.74305 | 111.87678 | 26361 ft | 496 kts | 108° |
| 2026-04-27 09:01 | 28.73273 | 111.91409 | 25714 ft | 491 kts | 108° |
| 2026-04-27 09:01 | 28.72251 | 111.95104 | 25116 ft | 487 kts | 108° |
| 2026-04-27 09:01 | 28.71238 | 111.98764 | 24539 ft | 482 kts | 108° |
| 2026-04-27 09:01 | 28.70235 | 112.02381 | 23973 ft | 477 kts | 108° |
| 2026-04-27 09:02 | 28.69239 | 112.05965 | 23416 ft | 472 kts | 108° |
| 2026-04-27 09:02 | 28.68251 | 112.09519 | 22771 ft | 468 kts | 108° |
| 2026-04-27 09:02 | 28.67274 | 112.13032 | 22174 ft | 463 kts | 108° |
| 2026-04-27 09:02 | 28.66306 | 112.16506 | 21582 ft | 458 kts | 109° |
| 2026-04-27 09:03 | 28.65347 | 112.19948 | 21016 ft | 454 kts | 109° |
| 2026-04-27 09:03 | 28.64395 | 112.23358 | 20444 ft | 450 kts | 109° |
| 2026-04-27 09:03 | 28.63451 | 112.26734 | 19893 ft | 446 kts | 109° |
| 2026-04-27 09:03 | 28.62514 | 112.30082 | 19359 ft | 442 kts | 109° |
| 2026-04-27 09:04 | 28.61587 | 112.33395 | 18821 ft | 438 kts | 109° |
| 2026-04-27 09:04 | 28.60665 | 112.36684 | 18311 ft | 434 kts | 109° |
| 2026-04-27 09:04 | 28.59752 | 112.39937 | 17746 ft | 430 kts | 109° |
| 2026-04-27 09:04 | 28.58844 | 112.43170 | 17183 ft | 426 kts | 109° |
| 2026-04-27 09:05 | 28.57946 | 112.46364 | 16667 ft | 422 kts | 109° |
| 2026-04-27 09:05 | 28.57054 | 112.49532 | 16195 ft | 419 kts | 109° |
| 2026-04-27 09:05 | 28.56168 | 112.52676 | 15732 ft | 415 kts | 110° |
| 2026-04-27 09:05 | 28.55291 | 112.55788 | 15284 ft | 412 kts | 110° |
| 2026-04-27 09:06 | 28.54417 | 112.58883 | 14865 ft | 408 kts | 110° |
| 2026-04-27 09:06 | 28.53566 | 112.61900 | 14791 ft | 394 kts | 110° |
| 2026-04-27 09:06 | 28.52742 | 112.64814 | 14708 ft | 381 kts | 110° |
| 2026-04-27 09:06 | 28.51947 | 112.67629 | 14625 ft | 368 kts | 110° |
| 2026-04-27 09:07 | 28.51174 | 112.70361 | 14544 ft | 356 kts | 110° |
| 2026-04-27 09:07 | 28.50430 | 112.72989 | 14470 ft | 344 kts | 111° |
| 2026-04-27 09:07 | 28.49707 | 112.75535 | 14396 ft | 333 kts | 111° |
| 2026-04-27 09:07 | 28.49007 | 112.78002 | 14310 ft | 323 kts | 111° |
| 2026-04-27 09:08 | 28.48324 | 112.80404 | 14183 ft | 315 kts | 111° |
| 2026-04-27 09:08 | 28.47655 | 112.82751 | 13974 ft | 311 kts | 111° |
| 2026-04-27 09:08 | 28.46990 | 112.85080 | 13676 ft | 310 kts | 111° |
| 2026-04-27 09:08 | 28.46325 | 112.87405 | 13335 ft | 309 kts | 111° |
| 2026-04-27 09:09 | 28.45664 | 112.89721 | 13022 ft | 307 kts | 111° |
| 2026-04-27 09:09 | 28.45008 | 112.92021 | 12721 ft | 305 kts | 111° |
| 2026-04-27 09:09 | 28.44364 | 112.94275 | 12434 ft | 304 kts | 111° |
| 2026-04-27 09:09 | 28.43725 | 112.96513 | 12147 ft | 303 kts | 111° |
| 2026-04-27 09:10 | 28.43101 | 112.98699 | 11890 ft | 301 kts | 111° |
| 2026-04-27 09:10 | 28.42455 | 113.00959 | 11614 ft | 300 kts | 111° |
| 2026-04-27 09:10 | 28.41817 | 113.03191 | 11477 ft | 293 kts | 112° |
| 2026-04-27 09:10 | 28.41201 | 113.05342 | 11385 ft | 278 kts | 112° |
| 2026-04-27 09:11 | 28.40623 | 113.07370 | 11107 ft | 263 kts | 112° |
| 2026-04-27 09:11 | 28.40060 | 113.09335 | 10866 ft | 259 kts | 111° |
| 2026-04-27 09:11 | 28.39821 | 113.11349 | 10513 ft | 261 kts | 89° |
| 2026-04-27 09:11 | 28.39995 | 113.13389 | 10185 ft | 259 kts | 89° |
| 2026-04-27 09:12 | 28.40114 | 113.15389 | 9868 ft | 248 kts | 90° |
| 2026-04-27 09:12 | 28.40212 | 113.17304 | 9426 ft | 240 kts | 91° |
| 2026-04-27 09:12 | 28.40303 | 113.19196 | 9018 ft | 238 kts | 93° |
| 2026-04-27 09:12 | 28.40010 | 113.20953 | 8611 ft | 220 kts | 130° |
| 2026-04-27 09:13 | 28.38898 | 113.21966 | 8218 ft | 200 kts | 169° |
| 2026-04-27 09:13 | 28.37588 | 113.21950 | 7920 ft | 183 kts | 198° |
| 2026-04-27 09:13 | 28.36389 | 113.21677 | 7675 ft | 176 kts | 187° |
| 2026-04-27 09:13 | 28.35186 | 113.21620 | 7449 ft | 168 kts | 186° |
| 2026-04-27 09:14 | 28.34041 | 113.21540 | 7057 ft | 163 kts | 186° |
| 2026-04-27 09:14 | 28.32897 | 113.21530 | 6596 ft | 162 kts | 182° |
| 2026-04-27 09:14 | 28.31792 | 113.21577 | 6183 ft | 159 kts | 181° |
| 2026-04-27 09:14 | 28.30683 | 113.21640 | 5688 ft | 160 kts | 180° |
| 2026-04-27 09:15 | 28.29582 | 113.21707 | 5217 ft | 157 kts | 180° |
| 2026-04-27 09:15 | 28.28503 | 113.21774 | 4673 ft | 154 kts | 180° |
| 2026-04-27 09:15 | 28.27426 | 113.21839 | 4018 ft | 156 kts | 179° |
| 2026-04-27 09:15 | 28.26321 | 113.21907 | 3607 ft | 165 kts | 178° |
| 2026-04-27 09:16 | 28.25170 | 113.21982 | 3617 ft | 168 kts | 177° |
| 2026-04-27 09:16 | 28.24037 | 113.22119 | 3208 ft | 163 kts | 176° |
| 2026-04-27 09:16 | 28.22870 | 113.22180 | 2892 ft | 167 kts | 179° |
| 2026-04-27 09:16 | 28.21693 | 113.22172 | 2744 ft | 172 kts | 177° |
| 2026-04-27 09:17 | 28.20455 | 113.22277 | 2743 ft | 185 kts | 176° |
| 2026-04-27 09:17 | 28.19165 | 113.22383 | 3108 ft | 186 kts | 175° |
| 2026-04-27 09:17 | 28.17888 | 113.22526 | 3716 ft | 183 kts | 174° |
| 2026-04-27 09:17 | 28.16631 | 113.22742 | 4295 ft | 184 kts | 171° |
| 2026-04-27 09:18 | 28.15336 | 113.22900 | 4584 ft | 192 kts | 186° |
| 2026-04-27 09:18 | 28.13972 | 113.22928 | 4842 ft | 205 kts | 164° |
| 2026-04-27 09:18 | 28.12627 | 113.23592 | 5135 ft | 217 kts | 161° |
| 2026-04-27 09:18 | 28.11168 | 113.24192 | 5492 ft | 231 kts | 164° |
| 2026-04-27 09:19 | 28.09599 | 113.24781 | 5900 ft | 244 kts | 165° |
| 2026-04-27 09:19 | 28.07998 | 113.25378 | 6041 ft | 240 kts | 165° |
| 2026-04-27 09:19 | 28.06460 | 113.26005 | 5954 ft | 232 kts | 155° |
| 2026-04-27 09:19 | 28.05261 | 113.27231 | 5964 ft | 239 kts | 127° |
| 2026-04-27 09:20 | 28.04612 | 113.28986 | 5971 ft | 248 kts | 105° |
| 2026-04-27 09:20 | 28.04624 | 113.30952 | 5959 ft | 256 kts | 79° |
| 2026-04-27 09:20 | 28.05056 | 113.32201 | 5945 ft | 259 kts | 61° |
| 2026-04-27 09:20 | 28.06816 | 113.33961 | 5935 ft | 256 kts | 21° |
| 2026-04-27 09:21 | 28.08547 | 113.34373 | 5957 ft | 248 kts | 0° |
| 2026-04-27 09:21 | 28.10241 | 113.34394 | 5959 ft | 247 kts | 358° |
| 2026-04-27 09:21 | 28.11958 | 113.34400 | 5949 ft | 247 kts | 358° |
| 2026-04-27 09:21 | 28.13674 | 113.34409 | 5956 ft | 246 kts | 358° |
| 2026-04-27 09:22 | 28.15377 | 113.34354 | 5943 ft | 242 kts | 346° |
| 2026-04-27 09:22 | 28.16432 | 113.33929 | 5956 ft | 236 kts | 323° |
| 2026-04-27 09:22 | 28.17514 | 113.32653 | 5967 ft | 225 kts | 290° |
| 2026-04-27 09:22 | 28.18144 | 113.30426 | 5982 ft | 225 kts | 279° |
| 2026-04-27 09:23 | 28.18505 | 113.28701 | 5963 ft | 224 kts | 278° |
| 2026-04-27 09:23 | 28.18738 | 113.27566 | 5953 ft | 223 kts | 278° |
| 2026-04-27 09:23 | 28.19088 | 113.25855 | 5952 ft | 222 kts | 278° |
| 2026-04-27 09:23 | 28.19431 | 113.24154 | 5969 ft | 221 kts | 278° |
| 2026-04-27 09:24 | 28.19693 | 113.21879 | 5947 ft | 213 kts | 254° |
| 2026-04-27 09:24 | 28.19351 | 113.20866 | 5967 ft | 207 kts | 232° |
| 2026-04-27 09:24 | 28.18251 | 113.19867 | 5982 ft | 206 kts | 199° |
| 2026-04-27 09:24 | 28.16834 | 113.19673 | 5988 ft | 208 kts | 181° |
| 2026-04-27 09:25 | 28.15368 | 113.19721 | 5968 ft | 212 kts | 181° |
| 2026-04-27 09:25 | 28.13897 | 113.19763 | 5956 ft | 211 kts | 181° |
| 2026-04-27 09:25 | 28.12428 | 113.19804 | 5813 ft | 212 kts | 181° |
| 2026-04-27 09:25 | 28.10953 | 113.19846 | 5605 ft | 210 kts | 181° |
| 2026-04-27 09:26 | 28.09498 | 113.19888 | 5414 ft | 208 kts | 181° |
| 2026-04-27 09:26 | 28.08056 | 113.19932 | 5170 ft | 207 kts | 181° |
| 2026-04-27 09:26 | 28.06622 | 113.19974 | 4950 ft | 205 kts | 181° |
| 2026-04-27 09:26 | 28.05195 | 113.20012 | 4766 ft | 204 kts | 181° |
| 2026-04-27 09:27 | 28.03798 | 113.20049 | 4639 ft | 197 kts | 181° |
| 2026-04-27 09:27 | 28.02449 | 113.20087 | 4466 ft | 190 kts | 181° |
| 2026-04-27 09:27 | 28.01141 | 113.20147 | 4168 ft | 187 kts | 172° |
| 2026-04-27 09:27 | 27.99979 | 113.20796 | 3764 ft | 194 kts | 135° |
| 2026-04-27 09:28 | 27.99418 | 113.22191 | 3421 ft | 202 kts | 97° |
| 2026-04-27 09:28 | 27.99724 | 113.23733 | 3124 ft | 206 kts | 60° |
| 2026-04-27 09:28 | 28.00740 | 113.24829 | 2846 ft | 202 kts | 36° |
| 2026-04-27 09:28 | 28.01917 | 113.25707 | 2491 ft | 202 kts | 28° |
| 2026-04-27 09:29 | 28.03267 | 113.26047 | 2370 ft | 199 kts | 2° |
| 2026-04-27 09:29 | 28.04639 | 113.26080 | 2332 ft | 196 kts | 358° |
| 2026-04-27 09:29 | 28.05934 | 113.25872 | 2335 ft | 188 kts | 348° |
| 2026-04-27 09:29 | 28.07200 | 113.25574 | 2325 ft | 184 kts | 348° |
| 2026-04-27 09:30 | 28.08442 | 113.25277 | 2318 ft | 181 kts | 347° |
| 2026-04-27 09:30 | 28.09664 | 113.24985 | 2323 ft | 178 kts | 347° |
| 2026-04-27 09:30 | 28.10872 | 113.24700 | 2386 ft | 175 kts | 347° |
| 2026-04-27 09:30 | 28.12022 | 113.24439 | 2322 ft | 162 kts | 348° |
| 2026-04-27 09:31 | 28.13100 | 113.24187 | 2296 ft | 156 kts | 348° |
| 2026-04-27 09:31 | 28.14158 | 113.23932 | 2335 ft | 156 kts | 348° |
| 2026-04-27 09:31 | 28.15232 | 113.23678 | 2331 ft | 159 kts | 348° |
| 2026-04-27 09:31 | 28.16309 | 113.23421 | 2330 ft | 158 kts | 348° |
| 2026-04-27 09:32 | 28.17376 | 113.23162 | 2305 ft | 156 kts | 346° |
| 2026-04-27 09:32 | 28.18512 | 113.22459 | 2379 ft | 232 kts | 310° |
| 2026-04-27 09:32 | 28.19237 | 113.20682 | 2338 ft | 258 kts | 274° |
| 2026-04-27 09:32 | 28.19362 | 113.18637 | 2358 ft | 265 kts | 276° |
| 2026-04-27 09:33 | 28.19829 | 113.16584 | 2329 ft | 272 kts | 287° |
| 2026-04-27 09:33 | 28.20515 | 113.14589 | 2332 ft | 271 kts | 291° |
| 2026-04-27 09:33 | 28.21307 | 113.12681 | 2332 ft | 264 kts | 302° |
| 2026-04-27 09:33 | 28.22678 | 113.11351 | 2383 ft | 269 kts | 339° |
| 2026-04-27 09:34 | 28.24512 | 113.11014 | 2846 ft | 269 kts | 357° |
| 2026-04-27 09:34 | 28.26399 | 113.10898 | 3486 ft | 275 kts | 355° |
| 2026-04-27 09:34 | 28.28333 | 113.10760 | 3999 ft | 282 kts | 355° |
| 2026-04-27 09:34 | 28.30308 | 113.10629 | 4008 ft | 286 kts | 355° |
| 2026-04-27 09:35 | 28.32281 | 113.10506 | 4014 ft | 282 kts | 355° |
| 2026-04-27 09:35 | 28.34240 | 113.10388 | 4040 ft | 282 kts | 355° |
| 2026-04-27 09:35 | 28.36211 | 113.10291 | 4014 ft | 282 kts | 1° |
| 2026-04-27 09:35 | 28.38056 | 113.10865 | 3930 ft | 273 kts | 34° |
| 2026-04-27 09:36 | 28.39333 | 113.12330 | 3834 ft | 254 kts | 62° |
| 2026-04-27 09:36 | 28.39978 | 113.14111 | 3682 ft | 235 kts | 81° |
| 2026-04-27 09:36 | 28.40192 | 113.15874 | 3537 ft | 218 kts | 90° |
| 2026-04-27 09:36 | 28.40162 | 113.17538 | 3279 ft | 203 kts | 109° |
| 2026-04-27 09:37 | 28.39609 | 113.18939 | 2982 ft | 189 kts | 127° |
| 2026-04-27 09:37 | 28.38805 | 113.20044 | 2736 ft | 176 kts | 133° |
| 2026-04-27 09:37 | 28.37976 | 113.21018 | 2465 ft | 167 kts | 153° |
| 2026-04-27 09:37 | 28.36894 | 113.21220 | 2374 ft | 159 kts | 182° |
| 2026-04-27 09:38 | 28.35802 | 113.21286 | 2325 ft | 155 kts | 169° |
| 2026-04-27 09:38 | 28.34725 | 113.21417 | 2327 ft | 156 kts | 176° |
| 2026-04-27 09:38 | 28.33674 | 113.21467 | 2306 ft | 148 kts | 176° |
| 2026-04-27 09:38 | 28.32662 | 113.21521 | 2325 ft | 143 kts | 176° |
| 2026-04-27 09:39 | 28.31688 | 113.21578 | 2346 ft | 138 kts | 176° |
| 2026-04-27 09:39 | 28.30741 | 113.21635 | 2147 ft | 134 kts | 176° |
| 2026-04-27 09:39 | 28.29806 | 113.21692 | 1989 ft | 136 kts | 175° |
| 2026-04-27 09:39 | 28.28855 | 113.21751 | 1840 ft | 139 kts | 174° |
| 2026-04-27 09:40 | 28.27887 | 113.21810 | 1658 ft | 139 kts | 173° |
| 2026-04-27 09:40 | 28.26924 | 113.21873 | 1448 ft | 138 kts | 174° |
| 2026-04-27 09:40 | 28.25965 | 113.21929 | 1273 ft | 138 kts | 174° |
| 2026-04-27 09:40 | 28.24994 | 113.21990 | 1086 ft | 140 kts | 173° |
| 2026-04-27 09:41 | 28.24035 | 113.22050 | 857 ft | 136 kts | 176° |
| 2026-04-27 09:41 | 28.23102 | 113.22104 | 681 ft | 133 kts | 176° |
| 2026-04-27 09:41 | 28.22168 | 113.22163 | 541 ft | 135 kts | 178° |
| 2026-04-27 09:41 | 28.21228 | 113.22227 | 377 ft | 136 kts | 178° |
| 2026-04-27 09:42 | 28.20294 | 113.22276 | 228 ft | 130 kts | 178° |
| 2026-04-27 09:42 | 28.19496 | 113.22330 | 223 ft | 95 kts | 176° |
| 2026-04-27 09:42 | 28.19033 | 113.22359 | 222 ft | 42 kts | 178° |
| 2026-04-27 09:42 | 28.18781 | 113.22291 | 225 ft | 15 kts | 202° |
| 2026-04-27 09:43 | 28.18777 | 113.22289 | 225 ft | 0 kts | 202° |
| 2026-04-27 09:46 | 28.18735 | 113.22269 | 225 ft | 4 kts | 202° |
| 2026-04-27 09:47 | 28.18706 | 113.22255 | 224 ft | 12 kts | 204° |
| 2026-04-27 09:47 | 28.18633 | 113.22217 | 226 ft | 2 kts | 220° |
| 2026-04-27 09:47 | 28.18673 | 113.22178 | 225 ft | 18 kts | 338° |
| 2026-04-27 09:47 | 28.18779 | 113.22118 | 224 ft | 1 kts | 332° |
| 2026-04-27 09:48 | 28.18794 | 113.22141 | 226 ft | 13 kts | 94° |
| 2026-04-27 09:48 | 28.18641 | 113.22189 | 229 ft | 39 kts | 176° |
| 2026-04-27 09:48 | 28.18367 | 113.22208 | 222 ft | 37 kts | 176° |
| 2026-04-27 09:48 | 28.18083 | 113.22208 | 222 ft | 17 kts | 203° |
| 2026-04-27 09:49 | 28.18061 | 113.22106 | 221 ft | 26 kts | 269° |
| 2026-04-27 09:49 | 28.18109 | 113.21850 | 223 ft | 7 kts | 300° |
| 2026-04-27 09:49 | 28.18155 | 113.21836 | 222 ft | 12 kts | 354° |
| 2026-04-27 09:49 | 28.18292 | 113.21825 | 222 ft | 22 kts | 356° |
| 2026-04-27 09:50 | 28.18442 | 113.21816 | 221 ft | 22 kts | 356° |
| 2026-04-27 09:50 | 28.18565 | 113.21806 | 222 ft | 0 kts | 355° |
| 2026-04-27 09:50 | 28.18569 | 113.21806 | 222 ft | 1 kts | 355° |
| 2026-04-27 09:51 | 28.18578 | 113.21795 | 223 ft | 8 kts | 299° |
| 2026-04-27 09:51 | 28.18588 | 113.21721 | 225 ft | 6 kts | 287° |
| 2026-04-27 09:51 | 28.18613 | 113.21680 | 224 ft | 7 kts | 312° |
| 2026-04-27 09:51 | 28.18649 | 113.21636 | 222 ft | 8 kts | 313° |
| 2026-04-27 09:52 | 28.18669 | 113.21612 | 223 ft | 1 kts | 313° |
| 2026-04-27 09:52 | 28.18676 | 113.21604 | 223 ft | 2 kts | 313° |
| 2026-04-27 09:52 | 28.18681 | 113.21597 | 218 ft | 0 kts | 313° |
| 2026-04-27 09:52 | 28.18685 | 113.21592 | 220 ft | 0 kts | 314° |
| 2026-04-27 09:53 | 28.18684 | 113.21593 | 218 ft | 0 kts | 314° |